ADDS METAR Data INFO
IDs: Format: Raw Decoded Include TAF

Data at: 1100 UTC 24 Nov 2017

KSSF 241053Z AUTO 00000KT 8SM CLR 06/02 A3001 RMK AO2 SLP161 T00560022 $
KSSF 240953Z AUTO 00000KT 8SM CLR 06/03 A3003 RMK AO2 SLP167 T00560028 $
KSSF 240853Z AUTO 00000KT 9SM CLR 07/03 A3003 RMK AO2 SLP169 T00670033 57012 $
KSSF 240753Z AUTO 00000KT 9SM CLR 07/03 A3005 RMK AO2 SLP173 T00670028 $
KSSF 240653Z AUTO 00000KT 10SM CLR 07/03 A3006 RMK AO2 SLP177 T00720028 $
KSSF 240553Z AUTO 00000KT 10SM CLR 08/03 A3007 RMK AO2 SLP181 T00780028 10156 20078 402280017 58004 $
KSSF 240453Z AUTO 00000KT 10SM CLR 08/02 A3008 RMK AO2 SLP186 T00830022 $
KSSF 240353Z 00000KT 10SM CLR 10/01 A3008 RMK AO2 SLP185 T01000011 $
KSSF 240253Z 00000KT 10SM CLR 10/02 A3008 RMK AO2 SLP188 T01000022 53008 $
KSSF 240153Z 00000KT 10SM CLR 11/02 A3008 RMK AO2 SLP188 T01110022 $
KSSF 240053Z 00000KT 10SM CLR 13/02 A3006 RMK AO2 SLP184 T01280017 $
KSSF 232353Z 19003KT 10SM CLR 15/01 A3006 RMK AO2 SLP181 T01500011 10228 20150 56006 $
KSSF 232253Z 27003KT 10SM CLR 22/M03 A3006 RMK AO2 SLP178 T02171028 $
KSSF 232153Z 28004KT 10SM CLR 22/M03 A3006 RMK AO2 SLP177 T02221033 $
KSSF 232053Z 00000KT 10SM CLR 22/M04 A3008 RMK AO2 SLP183 T02221039 56035 $
KSSF 231953Z 21004KT 10SM CLR 21/M04 A3010 RMK AO2 SLP193 T02111039 $
KSSF 231853Z 25006KT 10SM CLR 20/M04 A3014 RMK AO2 SLP204 T02001039 $
KSSF 231753Z VRB03KT 10SM CLR 19/M04 A3018 RMK AO2 SLP218 T01891044 10189 20017 58017 $
KSSF 231653Z 00000KT 10SM CLR 16/M04 A3022 RMK AO2 SLP232 T01611039 $
KSSF 231553Z 00000KT 10SM CLR 14/M03 A3023 RMK AO2 SLP239 T01391033 $
KSSF 231453Z 00000KT 10SM CLR 10/00 A3023 RMK AO2 SLP237 T01000000 53006 $
KSSF 231353Z 00000KT 10SM CLR 04/01 A3022 RMK AO2 SLP237 T00390006 $
KSSF 231253Z 00000KT 10SM CLR 02/M01 A3021 RMK AO2 SLP234 T00221011 $
KSSF 231153Z AUTO 00000KT 10SM CLR 03/M01 A3021 RMK AO2 SLP232 T00281011 10094 20022 58000 $
KSSF 231053Z AUTO 00000KT 10SM CLR 04/M01 A3021 RMK AO2 SLP231 T00441011 $
KSSF 230953Z AUTO 00000KT 10SM CLR 05/M01 A3021 RMK AO2 SLP231 T00501011 $
KSSF 230853Z AUTO 36003KT 10SM CLR 04/M01 A3021 RMK AO2 SLP231 T00441006 57012 $
KSSF 230753Z AUTO 35003KT 10SM CLR 06/M01 A3022 RMK AO2 SLP233 T00611011 $
KSSF 230653Z AUTO 00000KT 10SM CLR 07/M01 A3024 RMK AO2 SLP238 T00671011 $
KSSF 230553Z AUTO 35004KT 10SM CLR 09/M02 A3025 RMK AO2 SLP242 T00891022 10167 20072 402110072 58007 $
KSSF 230453Z AUTO 35005KT 10SM CLR 09/M02 A3027 RMK AO2 SLP251 T00891017 $
KSSF 230353Z 00000KT 10SM CLR 09/M02 A3027 RMK AO2 SLP251 T00891017 $
KSSF 230253Z 35005KT 10SM CLR 12/M03 A3027 RMK AO2 SLP250 T01171028 53008 $
KSSF 230153Z 02005KT 10SM CLR 13/M02 A3026 RMK AO2 SLP247 T01331022 $
KSSF 230053Z 03004KT 10SM CLR 15/M01 A3025 RMK AO2 SLP242 T01501006 $
KSSF 222353Z 02005KT 10SM CLR 17/M01 A3024 RMK AO2 SLP239 T01671006 10211 20167 53007 $